sensor_id;sensor_type;location;lat;lon;timestamp;temperature;humidity
23143;DHT22;11740;51.168;4.112;2023-03-11T00:02:15;0.30;1.00
23143;DHT22;11740;51.168;4.112;2023-03-11T00:04:42;0.30;1.00
23143;DHT22;11740;51.168;4.112;2023-03-11T00:07:10;0.20;1.00
23143;DHT22;11740;51.168;4.112;2023-03-11T00:09:37;0.20;1.00
23143;DHT22;11740;51.168;4.112;2023-03-11T00:12:04;0.20;1.00
23143;DHT22;11740;51.168;4.112;2023-03-11T00:14:31;0.20;1.00
23143;DHT22;11740;51.168;4.112;2023-03-11T00:16:58;0.10;1.00
23143;DHT22;11740;51.168;4.112;2023-03-11T00:19:24;0.10;1.00
23143;DHT22;11740;51.168;4.112;2023-03-11T00:21:51;0.10;1.00
23143;DHT22;11740;51.168;4.112;2023-03-11T00:24:18;0.10;1.00
23143;DHT22;11740;51.168;4.112;2023-03-11T00:26:45;0.00;21.00
23143;DHT22;11740;51.168;4.112;2023-03-11T00:29:12;0.00;83.50
23143;DHT22;11740;51.168;4.112;2023-03-11T00:31:39;0.00;99.90
23143;DHT22;11740;51.168;4.112;2023-03-11T00:34:06;0.00;99.90
23143;DHT22;11740;51.168;4.112;2023-03-11T00:36:32;0.00;99.90
23143;DHT22;11740;51.168;4.112;2023-03-11T00:39:00;0.00;99.90
23143;DHT22;11740;51.168;4.112;2023-03-11T00:41:32;0.00;99.90
23143;DHT22;11740;51.168;4.112;2023-03-11T00:44:00;-0.10;99.90
23143;DHT22;11740;51.168;4.112;2023-03-11T00:46:26;-0.10;99.90
23143;DHT22;11740;51.168;4.112;2023-03-11T00:48:55;-0.10;99.90
23143;DHT22;11740;51.168;4.112;2023-03-11T00:51:22;-0.10;99.90
23143;DHT22;11740;51.168;4.112;2023-03-11T00:53:49;-0.10;99.90
23143;DHT22;11740;51.168;4.112;2023-03-11T00:56:16;-0.20;99.90
23143;DHT22;11740;51.168;4.112;2023-03-11T00:58:43;-0.10;99.90
23143;DHT22;11740;51.168;4.112;2023-03-11T01:01:15;-0.20;99.90
23143;DHT22;11740;51.168;4.112;2023-03-11T01:03:43;-0.20;99.90
23143;DHT22;11740;51.168;4.112;2023-03-11T01:06:10;-0.10;99.90
23143;DHT22;11740;51.168;4.112;2023-03-11T01:08:36;-0.20;1.00
23143;DHT22;11740;51.168;4.112;2023-03-11T01:11:04;-0.10;1.00
23143;DHT22;11740;51.168;4.112;2023-03-11T01:13:32;-0.20;1.00
23143;DHT22;11740;51.168;4.112;2023-03-11T01:15:59;-0.20;1.00
23143;DHT22;11740;51.168;4.112;2023-03-11T01:18:26;-0.20;1.00
23143;DHT22;11740;51.168;4.112;2023-03-11T01:20:53;-0.20;1.00
23143;DHT22;11740;51.168;4.112;2023-03-11T01:23:20;-0.20;1.00
23143;DHT22;11740;51.168;4.112;2023-03-11T01:25:47;-0.20;1.00
23143;DHT22;11740;51.168;4.112;2023-03-11T01:28:14;-0.30;1.00
23143;DHT22;11740;51.168;4.112;2023-03-11T01:30:41;-0.30;1.00
23143;DHT22;11740;51.168;4.112;2023-03-11T01:33:12;-0.30;1.00
23143;DHT22;11740;51.168;4.112;2023-03-11T01:35:40;-0.30;1.00
23143;DHT22;11740;51.168;4.112;2023-03-11T01:38:09;-0.30;1.00
23143;DHT22;11740;51.168;4.112;2023-03-11T01:40:41;-0.40;1.00
23143;DHT22;11740;51.168;4.112;2023-03-11T01:51:19;-0.40;1.00
23143;DHT22;11740;51.168;4.112;2023-03-11T01:53:50;-0.40;1.00
23143;DHT22;11740;51.168;4.112;2023-03-11T01:56:18;-0.40;25.40
23143;DHT22;11740;51.168;4.112;2023-03-11T01:58:45;-0.40;35.70
23143;DHT22;11740;51.168;4.112;2023-03-11T02:01:15;-0.40;26.60
23143;DHT22;11740;51.168;4.112;2023-03-11T02:03:42;-0.30;1.00
23143;DHT22;11740;51.168;4.112;2023-03-11T02:06:10;-0.40;1.00
23143;DHT22;11740;51.168;4.112;2023-03-11T02:08:39;-0.40;19.80
23143;DHT22;11740;51.168;4.112;2023-03-11T02:11:09;-0.40;89.60
23143;DHT22;11740;51.168;4.112;2023-03-11T02:13:39;-0.30;99.90
23143;DHT22;11740;51.168;4.112;2023-03-11T02:16:07;-0.40;99.90
23143;DHT22;11740;51.168;4.112;2023-03-11T02:18:35;-0.40;99.90
23143;DHT22;11740;51.168;4.112;2023-03-11T02:21:05;-0.40;93.80
23143;DHT22;11740;51.168;4.112;2023-03-11T02:23:38;-0.40;50.70
23143;DHT22;11740;51.168;4.112;2023-03-11T02:26:34;-0.40;92.00
23143;DHT22;11740;51.168;4.112;2023-03-11T02:29:02;-0.40;13.60
23143;DHT22;11740;51.168;4.112;2023-03-11T02:31:30;-0.50;1.00
23143;DHT22;11740;51.168;4.112;2023-03-11T02:33:58;-0.50;19.20
23143;DHT22;11740;51.168;4.112;2023-03-11T02:39:02;-0.50;76.30
23143;DHT22;11740;51.168;4.112;2023-03-11T02:41:30;-0.60;99.90
23143;DHT22;11740;51.168;4.112;2023-03-11T02:43:57;-0.60;99.90
23143;DHT22;11740;51.168;4.112;2023-03-11T02:46:25;-0.60;99.90
23143;DHT22;11740;51.168;4.112;2023-03-11T02:48:52;-0.60;99.90
23143;DHT22;11740;51.168;4.112;2023-03-11T02:51:19;-0.70;99.90
23143;DHT22;11740;51.168;4.112;2023-03-11T02:53:47;-0.70;99.90
23143;DHT22;11740;51.168;4.112;2023-03-11T02:56:17;-0.70;99.90
23143;DHT22;11740;51.168;4.112;2023-03-11T02:58:44;-0.70;99.90
23143;DHT22;11740;51.168;4.112;2023-03-11T03:01:11;-0.70;99.90
23143;DHT22;11740;51.168;4.112;2023-03-11T03:03:38;-0.70;99.90
23143;DHT22;11740;51.168;4.112;2023-03-11T03:06:05;-0.80;99.90
23143;DHT22;11740;51.168;4.112;2023-03-11T03:08:32;-0.80;99.90
23143;DHT22;11740;51.168;4.112;2023-03-11T03:10:59;-0.80;99.90
23143;DHT22;11740;51.168;4.112;2023-03-11T03:13:26;-0.80;99.90
23143;DHT22;11740;51.168;4.112;2023-03-11T03:15:53;-0.70;99.90
23143;DHT22;11740;51.168;4.112;2023-03-11T03:18:20;-0.80;99.90
23143;DHT22;11740;51.168;4.112;2023-03-11T03:20:47;-0.70;99.90
23143;DHT22;11740;51.168;4.112;2023-03-11T03:23:14;-0.80;99.90
23143;DHT22;11740;51.168;4.112;2023-03-11T03:25:41;-0.70;99.90
23143;DHT22;11740;51.168;4.112;2023-03-11T03:28:09;-0.70;51.80
23143;DHT22;11740;51.168;4.112;2023-03-11T03:30:37;-0.70;1.00
23143;DHT22;11740;51.168;4.112;2023-03-11T03:33:05;-0.70;1.00
23143;DHT22;11740;51.168;4.112;2023-03-11T03:35:32;-0.70;1.00
23143;DHT22;11740;51.168;4.112;2023-03-11T03:38:00;-0.70;1.00
23143;DHT22;11740;51.168;4.112;2023-03-11T03:40:27;-0.70;1.00
23143;DHT22;11740;51.168;4.112;2023-03-11T03:42:54;-0.70;99.90
23143;DHT22;11740;51.168;4.112;2023-03-11T03:45:20;-0.70;99.90
23143;DHT22;11740;51.168;4.112;2023-03-11T03:47:47;-0.80;99.90
23143;DHT22;11740;51.168;4.112;2023-03-11T03:50:14;-0.80;99.90
23143;DHT22;11740;51.168;4.112;2023-03-11T03:52:41;-0.70;99.90
23143;DHT22;11740;51.168;4.112;2023-03-11T03:55:08;-0.80;99.90
23143;DHT22;11740;51.168;4.112;2023-03-11T03:57:35;-0.80;99.90
23143;DHT22;11740;51.168;4.112;2023-03-11T04:00:02;-0.80;99.90
23143;DHT22;11740;51.168;4.112;2023-03-11T04:02:30;-0.80;99.90
23143;DHT22;11740;51.168;4.112;2023-03-11T04:04:57;-0.80;99.90
23143;DHT22;11740;51.168;4.112;2023-03-11T04:07:23;-0.80;99.90
23143;DHT22;11740;51.168;4.112;2023-03-11T04:09:50;-0.80;1.00
23143;DHT22;11740;51.168;4.112;2023-03-11T04:12:17;-0.80;1.00
23143;DHT22;11740;51.168;4.112;2023-03-11T04:14:44;-0.80;1.00
23143;DHT22;11740;51.168;4.112;2023-03-11T04:17:11;-0.90;1.00
23143;DHT22;11740;51.168;4.112;2023-03-11T04:19:39;-0.90;1.00
23143;DHT22;11740;51.168;4.112;2023-03-11T04:22:06;-0.90;1.00
23143;DHT22;11740;51.168;4.112;2023-03-11T04:24:33;-0.90;1.00
23143;DHT22;11740;51.168;4.112;2023-03-11T04:27:00;-0.90;29.50
23143;DHT22;11740;51.168;4.112;2023-03-11T04:29:27;-0.90;99.90
23143;DHT22;11740;51.168;4.112;2023-03-11T04:31:54;-0.90;99.90
23143;DHT22;11740;51.168;4.112;2023-03-11T04:34:20;-0.90;99.90
23143;DHT22;11740;51.168;4.112;2023-03-11T04:36:50;-0.90;99.90
23143;DHT22;11740;51.168;4.112;2023-03-11T04:39:20;-0.80;99.90
23143;DHT22;11740;51.168;4.112;2023-03-11T04:41:47;-0.80;1.00
23143;DHT22;11740;51.168;4.112;2023-03-11T04:44:14;-0.80;1.00
23143;DHT22;11740;51.168;4.112;2023-03-11T04:46:40;-0.80;1.00
23143;DHT22;11740;51.168;4.112;2023-03-11T04:49:07;-0.80;1.00
23143;DHT22;11740;51.168;4.112;2023-03-11T04:51:35;-0.80;1.00
23143;DHT22;11740;51.168;4.112;2023-03-11T04:54:02;-0.80;1.00
23143;DHT22;11740;51.168;4.112;2023-03-11T04:56:29;-0.80;1.00
23143;DHT22;11740;51.168;4.112;2023-03-11T04:58:55;-0.90;1.00
23143;DHT22;11740;51.168;4.112;2023-03-11T05:01:22;-0.90;1.00
23143;DHT22;11740;51.168;4.112;2023-03-11T05:03:49;-0.80;1.00
23143;DHT22;11740;51.168;4.112;2023-03-11T05:06:16;-0.80;1.00
23143;DHT22;11740;51.168;4.112;2023-03-11T05:08:43;-0.80;1.00
23143;DHT22;11740;51.168;4.112;2023-03-11T05:11:10;-0.90;1.00
23143;DHT22;11740;51.168;4.112;2023-03-11T05:13:37;-0.90;1.00
23143;DHT22;11740;51.168;4.112;2023-03-11T05:16:04;-0.90;1.00
23143;DHT22;11740;51.168;4.112;2023-03-11T05:18:31;-0.90;1.00
23143;DHT22;11740;51.168;4.112;2023-03-11T05:20:58;-0.90;1.00
23143;DHT22;11740;51.168;4.112;2023-03-11T05:23:25;-0.90;1.00
23143;DHT22;11740;51.168;4.112;2023-03-11T05:25:51;-0.90;1.00
23143;DHT22;11740;51.168;4.112;2023-03-11T05:28:18;-0.90;1.00
23143;DHT22;11740;51.168;4.112;2023-03-11T05:30:45;-0.90;1.00
23143;DHT22;11740;51.168;4.112;2023-03-11T05:33:12;-0.90;1.00
23143;DHT22;11740;51.168;4.112;2023-03-11T05:35:39;-1.00;1.00
23143;DHT22;11740;51.168;4.112;2023-03-11T05:38:06;-1.00;1.00
23143;DHT22;11740;51.168;4.112;2023-03-11T05:40:33;-1.00;1.00
23143;DHT22;11740;51.168;4.112;2023-03-11T05:43:00;-1.00;1.00
23143;DHT22;11740;51.168;4.112;2023-03-11T05:45:26;-1.00;1.00
23143;DHT22;11740;51.168;4.112;2023-03-11T05:47:53;-1.00;1.00
23143;DHT22;11740;51.168;4.112;2023-03-11T05:50:20;-1.00;1.00
23143;DHT22;11740;51.168;4.112;2023-03-11T05:52:47;-1.00;1.00
23143;DHT22;11740;51.168;4.112;2023-03-11T05:55:14;-1.00;1.00
23143;DHT22;11740;51.168;4.112;2023-03-11T05:57:41;-1.00;1.00
23143;DHT22;11740;51.168;4.112;2023-03-11T06:00:08;-1.00;1.00
23143;DHT22;11740;51.168;4.112;2023-03-11T06:02:39;-1.00;1.00
23143;DHT22;11740;51.168;4.112;2023-03-11T06:05:06;-1.00;1.00
23143;DHT22;11740;51.168;4.112;2023-03-11T06:07:35;-1.10;1.00
23143;DHT22;11740;51.168;4.112;2023-03-11T06:10:03;-1.10;1.00
23143;DHT22;11740;51.168;4.112;2023-03-11T06:12:32;-1.10;1.00
23143;DHT22;11740;51.168;4.112;2023-03-11T06:14:59;-1.10;1.00
23143;DHT22;11740;51.168;4.112;2023-03-11T06:17:26;-1.00;1.00
23143;DHT22;11740;51.168;4.112;2023-03-11T06:19:55;-1.00;1.00
23143;DHT22;11740;51.168;4.112;2023-03-11T06:22:22;-1.00;1.00
23143;DHT22;11740;51.168;4.112;2023-03-11T06:24:49;-1.10;1.00
23143;DHT22;11740;51.168;4.112;2023-03-11T06:27:16;-1.10;1.00
23143;DHT22;11740;51.168;4.112;2023-03-11T06:29:43;-1.10;1.00
23143;DHT22;11740;51.168;4.112;2023-03-11T06:32:09;-1.10;1.00
23143;DHT22;11740;51.168;4.112;2023-03-11T06:34:36;-1.10;1.00
23143;DHT22;11740;51.168;4.112;2023-03-11T06:37:03;-1.00;1.00
23143;DHT22;11740;51.168;4.112;2023-03-11T06:39:30;-1.00;1.00
23143;DHT22;11740;51.168;4.112;2023-03-11T06:41:57;-1.00;1.00
23143;DHT22;11740;51.168;4.112;2023-03-11T06:44:24;-1.00;1.00
23143;DHT22;11740;51.168;4.112;2023-03-11T06:46:51;-1.00;22.60
23143;DHT22;11740;51.168;4.112;2023-03-11T06:49:17;-1.00;75.00
23143;DHT22;11740;51.168;4.112;2023-03-11T06:51:44;-1.00;71.70
23143;DHT22;11740;51.168;4.112;2023-03-11T06:54:11;-1.00;23.60
23143;DHT22;11740;51.168;4.112;2023-03-11T06:56:38;-1.00;20.10
23143;DHT22;11740;51.168;4.112;2023-03-11T06:59:05;-1.00;26.60
23143;DHT22;11740;51.168;4.112;2023-03-11T07:01:32;-1.00;52.40
23143;DHT22;11740;51.168;4.112;2023-03-11T07:03:59;-0.90;99.90
23143;DHT22;11740;51.168;4.112;2023-03-11T07:06:26;-0.90;99.90
23143;DHT22;11740;51.168;4.112;2023-03-11T07:08:53;-0.90;99.90
23143;DHT22;11740;51.168;4.112;2023-03-11T07:11:21;-0.80;99.90
23143;DHT22;11740;51.168;4.112;2023-03-11T07:13:49;-0.80;99.90
23143;DHT22;11740;51.168;4.112;2023-03-11T07:16:18;-0.70;99.90
23143;DHT22;11740;51.168;4.112;2023-03-11T07:18:47;-0.80;99.90
23143;DHT22;11740;51.168;4.112;2023-03-11T07:21:15;-0.70;99.90
23143;DHT22;11740;51.168;4.112;2023-03-11T07:23:44;-0.80;99.90
23143;DHT22;11740;51.168;4.112;2023-03-11T07:26:13;-0.70;99.90
23143;DHT22;11740;51.168;4.112;2023-03-11T07:28:40;-0.70;99.90
23143;DHT22;11740;51.168;4.112;2023-03-11T07:31:12;-0.70;99.90
23143;DHT22;11740;51.168;4.112;2023-03-11T07:33:40;-0.60;99.90
23143;DHT22;11740;51.168;4.112;2023-03-11T07:36:08;-0.50;1.00
23143;DHT22;11740;51.168;4.112;2023-03-11T07:38:37;-0.50;1.00
23143;DHT22;11740;51.168;4.112;2023-03-11T07:41:04;-0.50;1.00
23143;DHT22;11740;51.168;4.112;2023-03-11T07:43:31;-0.40;1.00
23143;DHT22;11740;51.168;4.112;2023-03-11T07:48:33;-0.40;1.00
23143;DHT22;11740;51.168;4.112;2023-03-11T07:51:06;-0.40;1.00
23143;DHT22;11740;51.168;4.112;2023-03-11T07:53:35;-0.40;1.00
23143;DHT22;11740;51.168;4.112;2023-03-11T07:56:03;-0.40;1.00
23143;DHT22;11740;51.168;4.112;2023-03-11T07:58:30;-0.30;1.00
23143;DHT22;11740;51.168;4.112;2023-03-11T08:01:01;-0.20;1.00
23143;DHT22;11740;51.168;4.112;2023-03-11T08:03:29;-0.20;1.00
23143;DHT22;11740;51.168;4.112;2023-03-11T08:05:56;-0.20;1.00
23143;DHT22;11740;51.168;4.112;2023-03-11T08:08:23;0.00;1.00
23143;DHT22;11740;51.168;4.112;2023-03-11T08:10:50;0.00;1.00
23143;DHT22;11740;51.168;4.112;2023-03-11T08:13:17;-0.10;1.00
23143;DHT22;11740;51.168;4.112;2023-03-11T08:15:44;-0.10;99.90
23143;DHT22;11740;51.168;4.112;2023-03-11T08:18:11;-0.10;1.00
23143;DHT22;11740;51.168;4.112;2023-03-11T08:20:38;-0.10;99.90
23143;DHT22;11740;51.168;4.112;2023-03-11T08:23:05;-0.10;99.90
23143;DHT22;11740;51.168;4.112;2023-03-11T08:25:32;0.00;99.90
23143;DHT22;11740;51.168;4.112;2023-03-11T08:27:59;0.10;99.90
23143;DHT22;11740;51.168;4.112;2023-03-11T08:30:25;0.10;99.90
23143;DHT22;11740;51.168;4.112;2023-03-11T08:32:52;0.10;99.90
23143;DHT22;11740;51.168;4.112;2023-03-11T08:35:19;0.20;1.00
23143;DHT22;11740;51.168;4.112;2023-03-11T08:37:46;0.20;99.90
23143;DHT22;11740;51.168;4.112;2023-03-11T08:40:13;0.40;1.00
23143;DHT22;11740;51.168;4.112;2023-03-11T08:42:40;0.40;1.00
23143;DHT22;11740;51.168;4.112;2023-03-11T08:45:07;0.50;1.00
23143;DHT22;11740;51.168;4.112;2023-03-11T08:47:35;0.50;1.00
23143;DHT22;11740;51.168;4.112;2023-03-11T08:50:04;0.70;1.00
23143;DHT22;11740;51.168;4.112;2023-03-11T08:52:32;0.70;99.90
23143;DHT22;11740;51.168;4.112;2023-03-11T08:54:59;0.90;99.90
23143;DHT22;11740;51.168;4.112;2023-03-11T08:57:26;1.00;9.20
23143;DHT22;11740;51.168;4.112;2023-03-11T08:59:53;1.10;1.00
23143;DHT22;11740;51.168;4.112;2023-03-11T09:02:20;1.20;99.90
23143;DHT22;11740;51.168;4.112;2023-03-11T09:04:47;1.20;1.00
23143;DHT22;11740;51.168;4.112;2023-03-11T09:07:13;1.30;1.00
23143;DHT22;11740;51.168;4.112;2023-03-11T09:09:40;1.30;1.00
23143;DHT22;11740;51.168;4.112;2023-03-11T09:12:08;1.30;99.90
23143;DHT22;11740;51.168;4.112;2023-03-11T09:14:35;1.40;99.90
23143;DHT22;11740;51.168;4.112;2023-03-11T09:17:05;1.50;8.20
23143;DHT22;11740;51.168;4.112;2023-03-11T09:19:32;1.50;1.00
23143;DHT22;11740;51.168;4.112;2023-03-11T09:21:59;1.50;1.00
23143;DHT22;11740;51.168;4.112;2023-03-11T09:24:27;1.60;99.90
23143;DHT22;11740;51.168;4.112;2023-03-11T09:26:54;1.80;1.00
23143;DHT22;11740;51.168;4.112;2023-03-11T09:29:20;1.80;1.00
23143;DHT22;11740;51.168;4.112;2023-03-11T09:31:47;1.80;99.90
23143;DHT22;11740;51.168;4.112;2023-03-11T09:34:14;2.00;1.00
23143;DHT22;11740;51.168;4.112;2023-03-11T09:36:41;2.10;1.00
23143;DHT22;11740;51.168;4.112;2023-03-11T09:39:09;2.10;99.90
23143;DHT22;11740;51.168;4.112;2023-03-11T09:41:55;2.20;1.00
23143;DHT22;11740;51.168;4.112;2023-03-11T09:44:36;2.30;1.00
23143;DHT22;11740;51.168;4.112;2023-03-11T09:47:31;2.40;1.00
23143;DHT22;11740;51.168;4.112;2023-03-11T09:50:05;2.40;1.00
23143;DHT22;11740;51.168;4.112;2023-03-11T09:58:07;2.60;1.00
23143;DHT22;11740;51.168;4.112;2023-03-11T10:00:39;2.60;1.00
23143;DHT22;11740;51.168;4.112;2023-03-11T10:03:13;2.60;1.00
23143;DHT22;11740;51.168;4.112;2023-03-11T10:05:48;2.80;1.00
23143;DHT22;11740;51.168;4.112;2023-03-11T10:08:32;2.90;89.30
23143;DHT22;11740;51.168;4.112;2023-03-11T10:22:11;3.00;42.80
23143;DHT22;11740;51.168;4.112;2023-03-11T10:27:48;3.00;99.90
23143;DHT22;11740;51.168;4.112;2023-03-11T10:30:22;3.10;99.90
23143;DHT22;11740;51.168;4.112;2023-03-11T10:32:53;3.20;99.90
23143;DHT22;11740;51.168;4.112;2023-03-11T10:35:35;3.20;99.90
23143;DHT22;11740;51.168;4.112;2023-03-11T10:38:15;3.30;99.90
23143;DHT22;11740;51.168;4.112;2023-03-11T10:40:46;3.30;35.70
23143;DHT22;11740;51.168;4.112;2023-03-11T10:43:34;3.40;1.00
23143;DHT22;11740;51.168;4.112;2023-03-11T10:46:04;3.60;1.00
23143;DHT22;11740;51.168;4.112;2023-03-11T10:48:39;3.80;1.00
23143;DHT22;11740;51.168;4.112;2023-03-11T10:51:16;3.90;1.00
23143;DHT22;11740;51.168;4.112;2023-03-11T10:53:49;3.90;1.00
23143;DHT22;11740;51.168;4.112;2023-03-11T10:56:29;4.00;99.90
23143;DHT22;11740;51.168;4.112;2023-03-11T10:59:04;4.00;1.00
23143;DHT22;11740;51.168;4.112;2023-03-11T11:01:36;4.10;1.00
23143;DHT22;11740;51.168;4.112;2023-03-11T11:04:03;4.10;99.90
23143;DHT22;11740;51.168;4.112;2023-03-11T11:06:51;4.10;1.00
23143;DHT22;11740;51.168;4.112;2023-03-11T11:09:19;4.30;1.00
23143;DHT22;11740;51.168;4.112;2023-03-11T11:12:04;4.30;1.00
23143;DHT22;11740;51.168;4.112;2023-03-11T11:14:42;4.40;1.00
23143;DHT22;11740;51.168;4.112;2023-03-11T11:19:50;4.70;1.00
23143;DHT22;11740;51.168;4.112;2023-03-11T11:22:18;4.70;1.00
23143;DHT22;11740;51.168;4.112;2023-03-11T11:24:47;4.80;1.00
23143;DHT22;11740;51.168;4.112;2023-03-11T11:27:20;4.90;16.80
23143;DHT22;11740;51.168;4.112;2023-03-11T11:32:34;5.10;1.00
23143;DHT22;11740;51.168;4.112;2023-03-11T11:35:04;5.20;1.00
23143;DHT22;11740;51.168;4.112;2023-03-11T11:37:34;5.20;1.00
23143;DHT22;11740;51.168;4.112;2023-03-11T11:40:06;5.40;1.00
23143;DHT22;11740;51.168;4.112;2023-03-11T11:42:49;5.50;1.00
23143;DHT22;11740;51.168;4.112;2023-03-11T11:45:33;5.60;1.00
23143;DHT22;11740;51.168;4.112;2023-03-11T11:48:04;5.60;1.00
23143;DHT22;11740;51.168;4.112;2023-03-11T11:50:44;5.80;1.00
23143;DHT22;11740;51.168;4.112;2023-03-11T11:55:58;6.00;1.00
23143;DHT22;11740;51.168;4.112;2023-03-11T11:58:25;6.00;1.00
23143;DHT22;11740;51.168;4.112;2023-03-11T12:03:43;6.30;1.00
23143;DHT22;11740;51.168;4.112;2023-03-11T12:06:30;6.30;1.00
23143;DHT22;11740;51.168;4.112;2023-03-11T12:12:46;6.50;1.00
23143;DHT22;11740;51.168;4.112;2023-03-11T12:17:38;6.60;1.00
23143;DHT22;11740;51.168;4.112;2023-03-11T12:20:21;6.70;99.90
23143;DHT22;11740;51.168;4.112;2023-03-11T12:23:39;6.70;99.90
23143;DHT22;11740;51.168;4.112;2023-03-11T12:31:24;6.90;1.00
23143;DHT22;11740;51.168;4.112;2023-03-11T12:33:57;7.00;99.90
23143;DHT22;11740;51.168;4.112;2023-03-11T12:36:31;7.00;99.90
23143;DHT22;11740;51.168;4.112;2023-03-11T12:39:00;7.10;1.00
23143;DHT22;11740;51.168;4.112;2023-03-11T12:49:32;7.40;99.90
23143;DHT22;11740;51.168;4.112;2023-03-11T13:00:28;7.70;99.90
23143;DHT22;11740;51.168;4.112;2023-03-11T13:09:14;8.20;99.90
23143;DHT22;11740;51.168;4.112;2023-03-11T13:11:46;8.30;99.90
23143;DHT22;11740;51.168;4.112;2023-03-11T13:16:41;8.50;99.90
23143;DHT22;11740;51.168;4.112;2023-03-11T13:21:52;8.50;99.90
23143;DHT22;11740;51.168;4.112;2023-03-11T13:26:56;8.60;99.90
23143;DHT22;11740;51.168;4.112;2023-03-11T13:32:22;8.90;99.90
23143;DHT22;11740;51.168;4.112;2023-03-11T13:40:37;8.60;99.90
23143;DHT22;11740;51.168;4.112;2023-03-11T13:43:22;8.60;99.90
23143;DHT22;11740;51.168;4.112;2023-03-11T13:48:42;8.80;99.90
23143;DHT22;11740;51.168;4.112;2023-03-11T13:51:13;9.10;99.90
23143;DHT22;11740;51.168;4.112;2023-03-11T13:53:44;9.10;99.90
23143;DHT22;11740;51.168;4.112;2023-03-11T13:56:22;9.30;99.90
23143;DHT22;11740;51.168;4.112;2023-03-11T13:58:52;9.40;99.90
23143;DHT22;11740;51.168;4.112;2023-03-11T14:01:20;9.40;99.90
23143;DHT22;11740;51.168;4.112;2023-03-11T14:03:47;9.50;99.90
23143;DHT22;11740;51.168;4.112;2023-03-11T14:06:15;9.50;99.90
23143;DHT22;11740;51.168;4.112;2023-03-11T14:08:55;9.50;99.90
23143;DHT22;11740;51.168;4.112;2023-03-11T14:11:26;9.70;99.90
23143;DHT22;11740;51.168;4.112;2023-03-11T14:13:57;9.90;99.90
23143;DHT22;11740;51.168;4.112;2023-03-11T14:19:13;10.40;99.90
23143;DHT22;11740;51.168;4.112;2023-03-11T14:21:44;10.50;99.90
23143;DHT22;11740;51.168;4.112;2023-03-11T14:24:16;10.60;99.90
23143;DHT22;11740;51.168;4.112;2023-03-11T14:26:49;10.70;99.90
23143;DHT22;11740;51.168;4.112;2023-03-11T14:29:19;10.90;99.90
23143;DHT22;11740;51.168;4.112;2023-03-11T14:31:50;11.00;99.90
23143;DHT22;11740;51.168;4.112;2023-03-11T14:34:21;11.20;99.90
23143;DHT22;11740;51.168;4.112;2023-03-11T14:36:51;11.10;99.90
23143;DHT22;11740;51.168;4.112;2023-03-11T14:39:28;11.00;99.90
23143;DHT22;11740;51.168;4.112;2023-03-11T14:42:03;10.80;99.90
23143;DHT22;11740;51.168;4.112;2023-03-11T14:44:32;10.70;99.90
23143;DHT22;11740;51.168;4.112;2023-03-11T14:49:56;10.80;99.90
23143;DHT22;11740;51.168;4.112;2023-03-11T14:52:28;10.80;99.90
23143;DHT22;11740;51.168;4.112;2023-03-11T14:54:58;10.80;99.90
23143;DHT22;11740;51.168;4.112;2023-03-11T14:57:30;10.90;99.90
23143;DHT22;11740;51.168;4.112;2023-03-11T15:00:03;11.10;99.90
23143;DHT22;11740;51.168;4.112;2023-03-11T15:02:36;11.50;99.90
23143;DHT22;11740;51.168;4.112;2023-03-11T15:05:13;11.80;99.90
23143;DHT22;11740;51.168;4.112;2023-03-11T15:07:44;11.90;99.90
23143;DHT22;11740;51.168;4.112;2023-03-11T15:10:11;12.10;99.90
23143;DHT22;11740;51.168;4.112;2023-03-11T15:12:40;12.20;27.60
23143;DHT22;11740;51.168;4.112;2023-03-11T15:15:27;12.20;30.00
23143;DHT22;11740;51.168;4.112;2023-03-11T15:17:55;12.30;20.30
23143;DHT22;11740;51.168;4.112;2023-03-11T15:20:34;12.60;62.10
23143;DHT22;11740;51.168;4.112;2023-03-11T15:23:03;13.00;17.60
23143;DHT22;11740;51.168;4.112;2023-03-11T15:25:32;13.00;4.90
23143;DHT22;11740;51.168;4.112;2023-03-11T15:31:12;13.00;57.70
23143;DHT22;11740;51.168;4.112;2023-03-11T15:39:16;13.30;10.30
23143;DHT22;11740;51.168;4.112;2023-03-11T15:41:46;13.40;53.30
23143;DHT22;11740;51.168;4.112;2023-03-11T15:44:41;13.40;15.60
23143;DHT22;11740;51.168;4.112;2023-03-11T15:47:16;13.10;15.00
23143;DHT22;11740;51.168;4.112;2023-03-11T15:49:44;13.00;93.00
23143;DHT22;11740;51.168;4.112;2023-03-11T15:52:11;13.10;41.80
23143;DHT22;11740;51.168;4.112;2023-03-11T15:54:38;13.10;68.30
23143;DHT22;11740;51.168;4.112;2023-03-11T15:57:06;12.80;2.30
23143;DHT22;11740;51.168;4.112;2023-03-11T15:59:37;12.80;97.90
23143;DHT22;11740;51.168;4.112;2023-03-11T16:02:13;12.90;60.60
23143;DHT22;11740;51.168;4.112;2023-03-11T16:04:47;12.80;49.70
23143;DHT22;11740;51.168;4.112;2023-03-11T16:07:14;12.90;36.30
23143;DHT22;11740;51.168;4.112;2023-03-11T16:09:42;12.90;20.30
23143;DHT22;11740;51.168;4.112;2023-03-11T16:12:17;12.90;92.20
23143;DHT22;11740;51.168;4.112;2023-03-11T16:14:46;12.80;39.10
23143;DHT22;11740;51.168;4.112;2023-03-11T16:17:14;12.70;6.70
23143;DHT22;11740;51.168;4.112;2023-03-11T16:19:41;12.60;22.20
23143;DHT22;11740;51.168;4.112;2023-03-11T16:22:18;12.60;57.50
23143;DHT22;11740;51.168;4.112;2023-03-11T16:24:48;12.30;3.90
23143;DHT22;11740;51.168;4.112;2023-03-11T16:27:16;12.20;1.00
23143;DHT22;11740;51.168;4.112;2023-03-11T16:29:44;12.20;15.10
23143;DHT22;11740;51.168;4.112;2023-03-11T16:32:11;12.20;1.00
23143;DHT22;11740;51.168;4.112;2023-03-11T16:34:39;12.00;1.00
23143;DHT22;11740;51.168;4.112;2023-03-11T16:37:06;12.00;3.80
23143;DHT22;11740;51.168;4.112;2023-03-11T16:39:33;11.80;1.00
23143;DHT22;11740;51.168;4.112;2023-03-11T16:42:00;11.70;13.30
23143;DHT22;11740;51.168;4.112;2023-03-11T16:44:27;12.00;77.80
23143;DHT22;11740;51.168;4.112;2023-03-11T16:46:54;12.00;20.10
23143;DHT22;11740;51.168;4.112;2023-03-11T16:49:21;12.00;54.40
23143;DHT22;11740;51.168;4.112;2023-03-11T16:51:48;11.90;20.20
23143;DHT22;11740;51.168;4.112;2023-03-11T16:54:14;11.80;6.50
23143;DHT22;11740;51.168;4.112;2023-03-11T16:56:41;11.60;1.00
23143;DHT22;11740;51.168;4.112;2023-03-11T16:59:08;11.40;1.00
23143;DHT22;11740;51.168;4.112;2023-03-11T17:01:35;11.30;1.00
23143;DHT22;11740;51.168;4.112;2023-03-11T17:04:05;11.30;2.80
23143;DHT22;11740;51.168;4.112;2023-03-11T17:06:35;11.30;1.00
23143;DHT22;11740;51.168;4.112;2023-03-11T17:09:02;11.50;16.20
23143;DHT22;11740;51.168;4.112;2023-03-11T17:11:29;11.70;88.10
23143;DHT22;11740;51.168;4.112;2023-03-11T17:13:58;11.70;66.40
23143;DHT22;11740;51.168;4.112;2023-03-11T17:16:40;11.60;73.60
23143;DHT22;11740;51.168;4.112;2023-03-11T17:19:07;11.80;99.90
23143;DHT22;11740;51.168;4.112;2023-03-11T17:21:34;11.80;99.90
23143;DHT22;11740;51.168;4.112;2023-03-11T17:24:01;11.60;74.20
23143;DHT22;11740;51.168;4.112;2023-03-11T17:26:28;11.40;32.90
23143;DHT22;11740;51.168;4.112;2023-03-11T17:28:57;11.40;83.10
23143;DHT22;11740;51.168;4.112;2023-03-11T17:31:24;11.40;81.00
23143;DHT22;11740;51.168;4.112;2023-03-11T17:33:51;11.40;88.00
23143;DHT22;11740;51.168;4.112;2023-03-11T17:36:18;11.40;99.90
23143;DHT22;11740;51.168;4.112;2023-03-11T17:38:46;11.40;99.90
23143;DHT22;11740;51.168;4.112;2023-03-11T17:41:17;11.30;78.70
23143;DHT22;11740;51.168;4.112;2023-03-11T17:43:44;11.20;99.90
23143;DHT22;11740;51.168;4.112;2023-03-11T17:46:12;11.20;99.90
23143;DHT22;11740;51.168;4.112;2023-03-11T17:48:43;11.10;93.70